sensor_id;sensor_type;location;lat;lon;timestamp;P1;durP1;ratioP1;P2;durP2;ratioP2
71655;SDS011;59497;48.798;8.816;2023-07-16T00:00:24;0.80;;;0.30;;
71655;SDS011;59497;48.798;8.816;2023-07-16T00:02:50;0.60;;;0.60;;
71655;SDS011;59497;48.798;8.816;2023-07-16T00:05:15;0.60;;;0.60;;
71655;SDS011;59497;48.798;8.816;2023-07-16T00:07:40;0.60;;;0.60;;
71655;SDS011;59497;48.798;8.816;2023-07-16T00:10:05;0.80;;;0.60;;
71655;SDS011;59497;48.798;8.816;2023-07-16T00:12:31;1.10;;;0.40;;
71655;SDS011;59497;48.798;8.816;2023-07-16T00:14:56;1.27;;;0.40;;
71655;SDS011;59497;48.798;8.816;2023-07-16T00:17:22;1.23;;;0.60;;
71655;SDS011;59497;48.798;8.816;2023-07-16T00:19:47;1.93;;;1.03;;
71655;SDS011;59497;48.798;8.816;2023-07-16T00:22:12;0.87;;;0.33;;
71655;SDS011;59497;48.798;8.816;2023-07-16T00:24:37;0.50;;;0.50;;
71655;SDS011;59497;48.798;8.816;2023-07-16T00:27:02;0.60;;;0.50;;
71655;SDS011;59497;48.798;8.816;2023-07-16T00:29:28;0.33;;;0.33;;
71655;SDS011;59497;48.798;8.816;2023-07-16T00:31:53;0.83;;;0.63;;
71655;SDS011;59497;48.798;8.816;2023-07-16T00:34:19;0.60;;;0.60;;
71655;SDS011;59497;48.798;8.816;2023-07-16T00:36:44;1.57;;;0.80;;
71655;SDS011;59497;48.798;8.816;2023-07-16T00:39:09;0.50;;;0.50;;
71655;SDS011;59497;48.798;8.816;2023-07-16T00:41:35;2.08;;;0.77;;
71655;SDS011;59497;48.798;8.816;2023-07-16T00:44:00;0.80;;;0.60;;
71655;SDS011;59497;48.798;8.816;2023-07-16T00:46:25;0.80;;;0.77;;
71655;SDS011;59497;48.798;8.816;2023-07-16T00:48:50;0.70;;;0.63;;
71655;SDS011;59497;48.798;8.816;2023-07-16T00:51:16;1.53;;;0.60;;
71655;SDS011;59497;48.798;8.816;2023-07-16T00:53:41;1.10;;;1.00;;
71655;SDS011;59497;48.798;8.816;2023-07-16T00:56:07;0.57;;;0.57;;
71655;SDS011;59497;48.798;8.816;2023-07-16T00:58:33;1.10;;;0.70;;
71655;SDS011;59497;48.798;8.816;2023-07-16T01:00:58;3.20;;;1.00;;
71655;SDS011;59497;48.798;8.816;2023-07-16T01:03:24;1.10;;;1.00;;
71655;SDS011;59497;48.798;8.816;2023-07-16T01:06:00;0.77;;;0.73;;
71655;SDS011;59497;48.798;8.816;2023-07-16T01:08:31;0.82;;;0.80;;
71655;SDS011;59497;48.798;8.816;2023-07-16T01:10:57;2.45;;;1.02;;
71655;SDS011;59497;48.798;8.816;2023-07-16T01:13:23;1.83;;;0.93;;
71655;SDS011;59497;48.798;8.816;2023-07-16T01:15:48;1.97;;;1.20;;
71655;SDS011;59497;48.798;8.816;2023-07-16T01:18:14;1.80;;;0.83;;
71655;SDS011;59497;48.798;8.816;2023-07-16T01:20:39;1.60;;;0.70;;
71655;SDS011;59497;48.798;8.816;2023-07-16T01:30:45;4.15;;;1.02;;
71655;SDS011;59497;48.798;8.816;2023-07-16T01:33:11;1.83;;;1.30;;
71655;SDS011;59497;48.798;8.816;2023-07-16T01:35:37;1.50;;;1.13;;
71655;SDS011;59497;48.798;8.816;2023-07-16T01:38:04;1.20;;;0.70;;
71655;SDS011;59497;48.798;8.816;2023-07-16T01:40:29;2.50;;;1.00;;
71655;SDS011;59497;48.798;8.816;2023-07-16T01:42:55;1.90;;;1.50;;
71655;SDS011;59497;48.798;8.816;2023-07-16T01:45:20;2.05;;;1.45;;
71655;SDS011;59497;48.798;8.816;2023-07-16T01:48:29;0.70;;;0.70;;
71655;SDS011;59497;48.798;8.816;2023-07-16T01:50:33;1.47;;;1.37;;
71655;SDS011;59497;48.798;8.816;2023-07-16T01:52:59;2.88;;;1.05;;
71655;SDS011;59497;48.798;8.816;2023-07-16T01:55:24;1.50;;;1.13;;
71655;SDS011;59497;48.798;8.816;2023-07-16T01:57:49;2.83;;;1.30;;
71655;SDS011;59497;48.798;8.816;2023-07-16T02:00:14;2.33;;;0.80;;
71655;SDS011;59497;48.798;8.816;2023-07-16T02:02:40;1.67;;;0.97;;
71655;SDS011;59497;48.798;8.816;2023-07-16T02:05:05;1.00;;;0.80;;
71655;SDS011;59497;48.798;8.816;2023-07-16T02:07:30;3.97;;;1.00;;
71655;SDS011;59497;48.798;8.816;2023-07-16T02:09:55;1.87;;;0.97;;
71655;SDS011;59497;48.798;8.816;2023-07-16T02:12:21;2.57;;;1.13;;
71655;SDS011;59497;48.798;8.816;2023-07-16T02:14:46;3.57;;;1.30;;
71655;SDS011;59497;48.798;8.816;2023-07-16T02:17:11;1.93;;;1.20;;
71655;SDS011;59497;48.798;8.816;2023-07-16T02:19:36;2.47;;;1.07;;
71655;SDS011;59497;48.798;8.816;2023-07-16T02:22:01;2.33;;;0.70;;
71655;SDS011;59497;48.798;8.816;2023-07-16T02:24:26;3.73;;;1.40;;
71655;SDS011;59497;48.798;8.816;2023-07-16T02:26:52;1.97;;;0.90;;
71655;SDS011;59497;48.798;8.816;2023-07-16T02:29:17;1.40;;;1.30;;
71655;SDS011;59497;48.798;8.816;2023-07-16T02:31:42;2.33;;;1.03;;
71655;SDS011;59497;48.798;8.816;2023-07-16T02:34:11;1.95;;;1.15;;
71655;SDS011;59497;48.798;8.816;2023-07-16T02:36:36;5.77;;;1.30;;
71655;SDS011;59497;48.798;8.816;2023-07-16T02:39:01;1.75;;;1.00;;
71655;SDS011;59497;48.798;8.816;2023-07-16T02:41:26;1.37;;;1.03;;
71655;SDS011;59497;48.798;8.816;2023-07-16T02:43:58;1.65;;;0.90;;
71655;SDS011;59497;48.798;8.816;2023-07-16T02:46:24;2.80;;;1.00;;
71655;SDS011;59497;48.798;8.816;2023-07-16T02:48:49;2.28;;;0.70;;
71655;SDS011;59497;48.798;8.816;2023-07-16T02:51:14;1.43;;;1.20;;
71655;SDS011;59497;48.798;8.816;2023-07-16T02:53:39;0.90;;;0.90;;
71655;SDS011;59497;48.798;8.816;2023-07-16T02:56:05;1.90;;;1.07;;
71655;SDS011;59497;48.798;8.816;2023-07-16T02:58:30;4.60;;;0.83;;
71655;SDS011;59497;48.798;8.816;2023-07-16T03:00:55;2.47;;;1.43;;
71655;SDS011;59497;48.798;8.816;2023-07-16T03:03:20;2.27;;;1.10;;
71655;SDS011;59497;48.798;8.816;2023-07-16T03:05:45;3.40;;;1.03;;
71655;SDS011;59497;48.798;8.816;2023-07-16T03:08:11;4.20;;;0.97;;
71655;SDS011;59497;48.798;8.816;2023-07-16T03:10:36;2.87;;;1.50;;
71655;SDS011;59497;48.798;8.816;2023-07-16T03:13:01;1.70;;;0.90;;
71655;SDS011;59497;48.798;8.816;2023-07-16T03:15:26;2.53;;;1.00;;
71655;SDS011;59497;48.798;8.816;2023-07-16T03:17:51;4.33;;;1.20;;
71655;SDS011;59497;48.798;8.816;2023-07-16T03:20:16;2.37;;;1.13;;
71655;SDS011;59497;48.798;8.816;2023-07-16T03:22:42;2.80;;;1.02;;
71655;SDS011;59497;48.798;8.816;2023-07-16T03:25:07;2.35;;;1.30;;
71655;SDS011;59497;48.798;8.816;2023-07-16T03:27:32;2.10;;;1.50;;
71655;SDS011;59497;48.798;8.816;2023-07-16T03:29:58;1.77;;;1.00;;
71655;SDS011;59497;48.798;8.816;2023-07-16T03:32:23;5.17;;;1.57;;
71655;SDS011;59497;48.798;8.816;2023-07-16T03:34:48;3.97;;;1.10;;
71655;SDS011;59497;48.798;8.816;2023-07-16T03:37:13;4.20;;;1.03;;
71655;SDS011;59497;48.798;8.816;2023-07-16T03:39:38;3.33;;;1.53;;
71655;SDS011;59497;48.798;8.816;2023-07-16T03:42:04;3.87;;;1.50;;
71655;SDS011;59497;48.798;8.816;2023-07-16T03:44:29;2.93;;;1.47;;
71655;SDS011;59497;48.798;8.816;2023-07-16T03:46:54;3.57;;;1.40;;
71655;SDS011;59497;48.798;8.816;2023-07-16T03:49:20;2.87;;;1.00;;
71655;SDS011;59497;48.798;8.816;2023-07-16T03:51:45;3.77;;;1.13;;
71655;SDS011;59497;48.798;8.816;2023-07-16T03:54:16;3.97;;;1.23;;
71655;SDS011;59497;48.798;8.816;2023-07-16T03:56:58;4.57;;;1.23;;
71655;SDS011;59497;48.798;8.816;2023-07-16T04:00:09;4.10;;;1.15;;
71655;SDS011;59497;48.798;8.816;2023-07-16T04:02:57;1.55;;;0.93;;
71655;SDS011;59497;48.798;8.816;2023-07-16T04:06:02;3.22;;;1.25;;
71655;SDS011;59497;48.798;8.816;2023-07-16T04:18:28;4.32;;;1.30;;
71655;SDS011;59497;48.798;8.816;2023-07-16T04:21:44;2.83;;;1.38;;
71655;SDS011;59497;48.798;8.816;2023-07-16T04:24:09;4.03;;;1.20;;
71655;SDS011;59497;48.798;8.816;2023-07-16T04:26:34;5.20;;;1.10;;
71655;SDS011;59497;48.798;8.816;2023-07-16T04:29:00;3.50;;;1.30;;
71655;SDS011;59497;48.798;8.816;2023-07-16T04:31:25;7.80;;;1.37;;
71655;SDS011;59497;48.798;8.816;2023-07-16T04:33:50;2.88;;;1.13;;
71655;SDS011;59497;48.798;8.816;2023-07-16T04:36:16;6.97;;;1.43;;
71655;SDS011;59497;48.798;8.816;2023-07-16T04:38:41;3.67;;;1.33;;
71655;SDS011;59497;48.798;8.816;2023-07-16T04:41:06;4.57;;;1.50;;
71655;SDS011;59497;48.798;8.816;2023-07-16T04:43:31;3.07;;;1.23;;
71655;SDS011;59497;48.798;8.816;2023-07-16T04:45:56;5.50;;;1.30;;
71655;SDS011;59497;48.798;8.816;2023-07-16T04:48:22;4.70;;;1.30;;
71655;SDS011;59497;48.798;8.816;2023-07-16T04:50:47;2.80;;;1.07;;
71655;SDS011;59497;48.798;8.816;2023-07-16T04:53:12;2.93;;;1.30;;
71655;SDS011;59497;48.798;8.816;2023-07-16T04:55:38;5.00;;;1.60;;
71655;SDS011;59497;48.798;8.816;2023-07-16T04:58:04;4.35;;;1.38;;
71655;SDS011;59497;48.798;8.816;2023-07-16T05:00:30;1.60;;;1.10;;
71655;SDS011;59497;48.798;8.816;2023-07-16T05:02:56;4.25;;;1.48;;
71655;SDS011;59497;48.798;8.816;2023-07-16T05:05:21;2.10;;;1.00;;
71655;SDS011;59497;48.798;8.816;2023-07-16T05:07:46;5.43;;;0.97;;
71655;SDS011;59497;48.798;8.816;2023-07-16T05:10:11;3.13;;;1.20;;
71655;SDS011;59497;48.798;8.816;2023-07-16T05:12:36;2.67;;;1.13;;
71655;SDS011;59497;48.798;8.816;2023-07-16T05:15:02;4.03;;;1.20;;
71655;SDS011;59497;48.798;8.816;2023-07-16T05:17:27;2.50;;;1.20;;
71655;SDS011;59497;48.798;8.816;2023-07-16T05:19:52;2.40;;;1.13;;
71655;SDS011;59497;48.798;8.816;2023-07-16T05:22:17;3.10;;;0.87;;
71655;SDS011;59497;48.798;8.816;2023-07-16T05:24:42;4.00;;;1.37;;
71655;SDS011;59497;48.798;8.816;2023-07-16T05:27:08;3.28;;;0.95;;
71655;SDS011;59497;48.798;8.816;2023-07-16T05:29:33;3.67;;;1.00;;
71655;SDS011;59497;48.798;8.816;2023-07-16T05:31:58;4.73;;;1.10;;
71655;SDS011;59497;48.798;8.816;2023-07-16T05:34:24;3.70;;;1.40;;
71655;SDS011;59497;48.798;8.816;2023-07-16T05:36:49;2.53;;;1.30;;
71655;SDS011;59497;48.798;8.816;2023-07-16T05:39:14;4.20;;;1.13;;
71655;SDS011;59497;48.798;8.816;2023-07-16T05:41:40;3.33;;;1.40;;
71655;SDS011;59497;48.798;8.816;2023-07-16T05:44:06;2.92;;;1.40;;
71655;SDS011;59497;48.798;8.816;2023-07-16T05:46:32;2.80;;;1.10;;
71655;SDS011;59497;48.798;8.816;2023-07-16T05:48:57;3.70;;;1.00;;
71655;SDS011;59497;48.798;8.816;2023-07-16T05:51:23;4.43;;;1.80;;
71655;SDS011;59497;48.798;8.816;2023-07-16T05:53:48;2.33;;;1.37;;
71655;SDS011;59497;48.798;8.816;2023-07-16T05:56:13;3.37;;;1.60;;
71655;SDS011;59497;48.798;8.816;2023-07-16T05:58:39;4.03;;;1.33;;
71655;SDS011;59497;48.798;8.816;2023-07-16T06:01:04;2.67;;;1.27;;
71655;SDS011;59497;48.798;8.816;2023-07-16T06:03:30;3.03;;;1.53;;
71655;SDS011;59497;48.798;8.816;2023-07-16T06:05:55;2.40;;;1.07;;
71655;SDS011;59497;48.798;8.816;2023-07-16T06:08:20;3.60;;;1.07;;
71655;SDS011;59497;48.798;8.816;2023-07-16T06:10:45;4.00;;;1.63;;
71655;SDS011;59497;48.798;8.816;2023-07-16T06:13:10;1.70;;;1.20;;
71655;SDS011;59497;48.798;8.816;2023-07-16T06:15:36;3.33;;;1.10;;
71655;SDS011;59497;48.798;8.816;2023-07-16T06:18:01;2.27;;;1.00;;
71655;SDS011;59497;48.798;8.816;2023-07-16T06:20:26;3.03;;;1.37;;
71655;SDS011;59497;48.798;8.816;2023-07-16T06:22:52;4.40;;;1.60;;
71655;SDS011;59497;48.798;8.816;2023-07-16T06:25:17;3.27;;;1.23;;
71655;SDS011;59497;48.798;8.816;2023-07-16T06:27:42;2.67;;;1.67;;
71655;SDS011;59497;48.798;8.816;2023-07-16T06:30:07;3.07;;;1.53;;
71655;SDS011;59497;48.798;8.816;2023-07-16T06:32:33;2.67;;;1.10;;
71655;SDS011;59497;48.798;8.816;2023-07-16T06:34:58;4.17;;;1.50;;
71655;SDS011;59497;48.798;8.816;2023-07-16T06:37:23;3.67;;;1.30;;
71655;SDS011;59497;48.798;8.816;2023-07-16T06:39:49;3.05;;;1.38;;
71655;SDS011;59497;48.798;8.816;2023-07-16T06:42:14;2.37;;;1.10;;
71655;SDS011;59497;48.798;8.816;2023-07-16T06:44:39;3.60;;;1.43;;
71655;SDS011;59497;48.798;8.816;2023-07-16T06:47:04;3.70;;;1.40;;
71655;SDS011;59497;48.798;8.816;2023-07-16T06:49:30;3.70;;;1.30;;
71655;SDS011;59497;48.798;8.816;2023-07-16T06:51:56;2.10;;;1.30;;
71655;SDS011;59497;48.798;8.816;2023-07-16T06:54:21;2.00;;;1.37;;
71655;SDS011;59497;48.798;8.816;2023-07-16T06:56:46;3.83;;;1.00;;
71655;SDS011;59497;48.798;8.816;2023-07-16T06:59:11;3.83;;;1.63;;
71655;SDS011;59497;48.798;8.816;2023-07-16T07:01:36;2.67;;;1.13;;
71655;SDS011;59497;48.798;8.816;2023-07-16T07:04:02;2.07;;;1.03;;
71655;SDS011;59497;48.798;8.816;2023-07-16T07:06:27;2.57;;;0.90;;
71655;SDS011;59497;48.798;8.816;2023-07-16T07:08:52;2.40;;;1.30;;
71655;SDS011;59497;48.798;8.816;2023-07-16T07:11:17;2.53;;;1.20;;
71655;SDS011;59497;48.798;8.816;2023-07-16T07:13:42;2.43;;;1.20;;
71655;SDS011;59497;48.798;8.816;2023-07-16T07:16:08;3.13;;;1.10;;
71655;SDS011;59497;48.798;8.816;2023-07-16T07:18:33;4.97;;;1.70;;
71655;SDS011;59497;48.798;8.816;2023-07-16T07:20:58;2.20;;;1.00;;
71655;SDS011;59497;48.798;8.816;2023-07-16T07:23:23;3.03;;;1.65;;
71655;SDS011;59497;48.798;8.816;2023-07-16T07:25:49;2.43;;;1.60;;
71655;SDS011;59497;48.798;8.816;2023-07-16T07:28:15;3.92;;;1.30;;
71655;SDS011;59497;48.798;8.816;2023-07-16T07:30:41;2.20;;;1.47;;
71655;SDS011;59497;48.798;8.816;2023-07-16T07:33:06;3.57;;;1.60;;
71655;SDS011;59497;48.798;8.816;2023-07-16T07:35:31;3.43;;;1.63;;
71655;SDS011;59497;48.798;8.816;2023-07-16T07:37:56;2.00;;;1.67;;
71655;SDS011;59497;48.798;8.816;2023-07-16T07:40:21;4.90;;;1.40;;
71655;SDS011;59497;48.798;8.816;2023-07-16T07:42:47;2.63;;;1.63;;
71655;SDS011;59497;48.798;8.816;2023-07-16T07:45:12;4.27;;;1.70;;
71655;SDS011;59497;48.798;8.816;2023-07-16T07:47:37;3.13;;;1.63;;
71655;SDS011;59497;48.798;8.816;2023-07-16T07:50:02;2.90;;;1.40;;
71655;SDS011;59497;48.798;8.816;2023-07-16T07:52:27;2.90;;;1.43;;
71655;SDS011;59497;48.798;8.816;2023-07-16T07:54:53;2.37;;;1.47;;
71655;SDS011;59497;48.798;8.816;2023-07-16T07:57:19;2.17;;;1.60;;
71655;SDS011;59497;48.798;8.816;2023-07-16T07:59:44;4.82;;;1.85;;
71655;SDS011;59497;48.798;8.816;2023-07-16T08:02:09;2.70;;;1.60;;
71655;SDS011;59497;48.798;8.816;2023-07-16T08:04:35;2.83;;;1.63;;
71655;SDS011;59497;48.798;8.816;2023-07-16T08:07:00;3.27;;;1.50;;
71655;SDS011;59497;48.798;8.816;2023-07-16T08:09:25;1.63;;;1.30;;
71655;SDS011;59497;48.798;8.816;2023-07-16T08:11:51;2.60;;;1.30;;
71655;SDS011;59497;48.798;8.816;2023-07-16T08:14:16;4.63;;;1.60;;
71655;SDS011;59497;48.798;8.816;2023-07-16T08:16:41;5.90;;;1.90;;
71655;SDS011;59497;48.798;8.816;2023-07-16T08:19:06;2.97;;;1.77;;
71655;SDS011;59497;48.798;8.816;2023-07-16T08:21:32;4.87;;;1.50;;
71655;SDS011;59497;48.798;8.816;2023-07-16T08:23:57;3.17;;;1.97;;
71655;SDS011;59497;48.798;8.816;2023-07-16T08:26:22;2.75;;;1.30;;
71655;SDS011;59497;48.798;8.816;2023-07-16T08:28:47;3.00;;;1.97;;
71655;SDS011;59497;48.798;8.816;2023-07-16T08:31:13;2.95;;;1.50;;
71655;SDS011;59497;48.798;8.816;2023-07-16T08:33:38;3.20;;;1.47;;
71655;SDS011;59497;48.798;8.816;2023-07-16T08:36:03;4.10;;;1.23;;
71655;SDS011;59497;48.798;8.816;2023-07-16T08:38:28;2.00;;;1.53;;
71655;SDS011;59497;48.798;8.816;2023-07-16T08:40:54;3.00;;;1.47;;
71655;SDS011;59497;48.798;8.816;2023-07-16T08:43:19;2.07;;;1.87;;
71655;SDS011;59497;48.798;8.816;2023-07-16T08:45:45;3.90;;;1.30;;
71655;SDS011;59497;48.798;8.816;2023-07-16T08:48:11;2.87;;;1.50;;
71655;SDS011;59497;48.798;8.816;2023-07-16T08:50:36;3.03;;;1.57;;
71655;SDS011;59497;48.798;8.816;2023-07-16T08:53:04;3.03;;;2.13;;
71655;SDS011;59497;48.798;8.816;2023-07-16T08:55:30;2.38;;;1.30;;
71655;SDS011;59497;48.798;8.816;2023-07-16T08:57:56;3.40;;;1.57;;
71655;SDS011;59497;48.798;8.816;2023-07-16T09:00:22;3.17;;;1.70;;
71655;SDS011;59497;48.798;8.816;2023-07-16T09:02:51;1.73;;;1.50;;
71655;SDS011;59497;48.798;8.816;2023-07-16T09:05:16;3.60;;;2.03;;
71655;SDS011;59497;48.798;8.816;2023-07-16T09:07:44;2.50;;;1.75;;
71655;SDS011;59497;48.798;8.816;2023-07-16T09:10:11;3.17;;;1.40;;
71655;SDS011;59497;48.798;8.816;2023-07-16T09:12:36;3.80;;;1.77;;
71655;SDS011;59497;48.798;8.816;2023-07-16T09:15:06;2.20;;;2.00;;
71655;SDS011;59497;48.798;8.816;2023-07-16T09:17:31;2.67;;;1.67;;
71655;SDS011;59497;48.798;8.816;2023-07-16T09:19:57;2.83;;;1.87;;
71655;SDS011;59497;48.798;8.816;2023-07-16T09:22:22;2.80;;;1.53;;
71655;SDS011;59497;48.798;8.816;2023-07-16T09:24:47;2.50;;;1.33;;
71655;SDS011;59497;48.798;8.816;2023-07-16T09:27:13;2.80;;;1.57;;
71655;SDS011;59497;48.798;8.816;2023-07-16T09:29:38;3.13;;;1.80;;
71655;SDS011;59497;48.798;8.816;2023-07-16T09:32:04;2.67;;;1.90;;
71655;SDS011;59497;48.798;8.816;2023-07-16T09:34:32;3.33;;;2.00;;
71655;SDS011;59497;48.798;8.816;2023-07-16T09:36:58;3.63;;;1.50;;
71655;SDS011;59497;48.798;8.816;2023-07-16T09:39:25;4.00;;;2.05;;
71655;SDS011;59497;48.798;8.816;2023-07-16T09:41:53;2.72;;;1.17;;
71655;SDS011;59497;48.798;8.816;2023-07-16T09:44:21;2.08;;;1.25;;
71655;SDS011;59497;48.798;8.816;2023-07-16T09:46:47;2.80;;;1.43;;
71655;SDS011;59497;48.798;8.816;2023-07-16T09:49:14;3.67;;;1.77;;
71655;SDS011;59497;48.798;8.816;2023-07-16T09:51:39;2.53;;;1.75;;
71655;SDS011;59497;48.798;8.816;2023-07-16T09:54:05;2.40;;;1.60;;
71655;SDS011;59497;48.798;8.816;2023-07-16T09:56:40;3.20;;;1.70;;
71655;SDS011;59497;48.798;8.816;2023-07-16T09:59:07;2.45;;;1.88;;
71655;SDS011;59497;48.798;8.816;2023-07-16T10:01:35;1.83;;;1.42;;
71655;SDS011;59497;48.798;8.816;2023-07-16T10:04:09;1.92;;;1.42;;
71655;SDS011;59497;48.798;8.816;2023-07-16T10:06:34;2.97;;;1.50;;
71655;SDS011;59497;48.798;8.816;2023-07-16T10:08:59;2.75;;;2.00;;
71655;SDS011;59497;48.798;8.816;2023-07-16T10:11:25;3.03;;;2.13;;
71655;SDS011;59497;48.798;8.816;2023-07-16T10:13:50;4.10;;;2.45;;
71655;SDS011;59497;48.798;8.816;2023-07-16T10:16:22;2.80;;;1.80;;
71655;SDS011;59497;48.798;8.816;2023-07-16T10:18:52;2.90;;;1.70;;
71655;SDS011;59497;48.798;8.816;2023-07-16T10:21:23;3.35;;;1.60;;
71655;SDS011;59497;48.798;8.816;2023-07-16T10:23:56;2.33;;;2.13;;
71655;SDS011;59497;48.798;8.816;2023-07-16T10:26:25;2.75;;;1.70;;
71655;SDS011;59497;48.798;8.816;2023-07-16T10:28:51;3.27;;;2.10;;
71655;SDS011;59497;48.798;8.816;2023-07-16T10:31:22;2.27;;;2.10;;
71655;SDS011;59497;48.798;8.816;2023-07-16T10:36:25;4.85;;;2.42;;
71655;SDS011;59497;48.798;8.816;2023-07-16T10:38:50;2.00;;;1.80;;
71655;SDS011;59497;48.798;8.816;2023-07-16T10:41:16;2.60;;;2.17;;
71655;SDS011;59497;48.798;8.816;2023-07-16T10:43:42;2.17;;;1.70;;
71655;SDS011;59497;48.798;8.816;2023-07-16T10:46:08;3.07;;;1.80;;
71655;SDS011;59497;48.798;8.816;2023-07-16T10:48:33;3.97;;;1.70;;
71655;SDS011;59497;48.798;8.816;2023-07-16T10:50:58;3.75;;;1.90;;
71655;SDS011;59497;48.798;8.816;2023-07-16T10:53:23;2.50;;;1.60;;
71655;SDS011;59497;48.798;8.816;2023-07-16T10:55:48;2.30;;;2.10;;
71655;SDS011;59497;48.798;8.816;2023-07-16T10:58:14;2.13;;;2.00;;
71655;SDS011;59497;48.798;8.816;2023-07-16T11:00:39;1.97;;;1.73;;
71655;SDS011;59497;48.798;8.816;2023-07-16T11:03:05;3.40;;;3.00;;
71655;SDS011;59497;48.798;8.816;2023-07-16T11:05:30;2.45;;;1.60;;
71655;SDS011;59497;48.798;8.816;2023-07-16T11:07:55;4.23;;;1.60;;
71655;SDS011;59497;48.798;8.816;2023-07-16T11:10:21;3.10;;;1.90;;
71655;SDS011;59497;48.798;8.816;2023-07-16T11:12:50;2.37;;;1.80;;
71655;SDS011;59497;48.798;8.816;2023-07-16T11:15:16;2.08;;;1.88;;
71655;SDS011;59497;48.798;8.816;2023-07-16T11:17:41;3.37;;;2.00;;
71655;SDS011;59497;48.798;8.816;2023-07-16T11:20:07;3.50;;;1.97;;
71655;SDS011;59497;48.798;8.816;2023-07-16T11:22:36;3.47;;;2.40;;
71655;SDS011;59497;48.798;8.816;2023-07-16T11:25:01;4.63;;;1.75;;
71655;SDS011;59497;48.798;8.816;2023-07-16T11:27:27;3.72;;;1.98;;
71655;SDS011;59497;48.798;8.816;2023-07-16T11:29:57;2.63;;;1.87;;
71655;SDS011;59497;48.798;8.816;2023-07-16T11:34:57;2.00;;;1.80;;
71655;SDS011;59497;48.798;8.816;2023-07-16T11:37:26;2.17;;;1.92;;
71655;SDS011;59497;48.798;8.816;2023-07-16T11:39:55;2.30;;;2.13;;
71655;SDS011;59497;48.798;8.816;2023-07-16T11:42:39;3.13;;;1.77;;
71655;SDS011;59497;48.798;8.816;2023-07-16T11:45:04;3.50;;;1.70;;
71655;SDS011;59497;48.798;8.816;2023-07-16T11:47:30;2.95;;;2.03;;
71655;SDS011;59497;48.798;8.816;2023-07-16T11:49:55;3.67;;;2.00;;
71655;SDS011;59497;48.798;8.816;2023-07-16T11:52:22;4.38;;;1.85;;
71655;SDS011;59497;48.798;8.816;2023-07-16T11:54:48;2.30;;;1.80;;
71655;SDS011;59497;48.798;8.816;2023-07-16T11:57:13;3.10;;;2.20;;
71655;SDS011;59497;48.798;8.816;2023-07-16T11:59:39;4.83;;;2.30;;
71655;SDS011;59497;48.798;8.816;2023-07-16T12:02:04;2.23;;;1.80;;
71655;SDS011;59497;48.798;8.816;2023-07-16T12:04:29;2.87;;;1.90;;
71655;SDS011;59497;48.798;8.816;2023-07-16T12:06:54;2.43;;;2.00;;
71655;SDS011;59497;48.798;8.816;2023-07-16T12:09:20;3.90;;;1.97;;
71655;SDS011;59497;48.798;8.816;2023-07-16T12:11:45;2.90;;;2.23;;
71655;SDS011;59497;48.798;8.816;2023-07-16T12:14:10;3.63;;;2.20;;
71655;SDS011;59497;48.798;8.816;2023-07-16T12:16:37;2.55;;;2.35;;
71655;SDS011;59497;48.798;8.816;2023-07-16T12:19:02;3.00;;;2.70;;
71655;SDS011;59497;48.798;8.816;2023-07-16T12:21:28;2.40;;;2.20;;
71655;SDS011;59497;48.798;8.816;2023-07-16T12:23:53;3.87;;;2.50;;
71655;SDS011;59497;48.798;8.816;2023-07-16T12:26:18;2.67;;;2.33;;
71655;SDS011;59497;48.798;8.816;2023-07-16T12:28:43;5.40;;;2.27;;
71655;SDS011;59497;48.798;8.816;2023-07-16T12:31:08;3.37;;;2.20;;
71655;SDS011;59497;48.798;8.816;2023-07-16T12:33:33;2.90;;;2.13;;
71655;SDS011;59497;48.798;8.816;2023-07-16T12:35:59;2.70;;;2.30;;
71655;SDS011;59497;48.798;8.816;2023-07-16T12:38:24;2.90;;;2.50;;
71655;SDS011;59497;48.798;8.816;2023-07-16T12:40:49;3.03;;;2.30;;
71655;SDS011;59497;48.798;8.816;2023-07-16T12:43:14;2.93;;;2.43;;
71655;SDS011;59497;48.798;8.816;2023-07-16T12:45:39;2.67;;;2.43;;
71655;SDS011;59497;48.798;8.816;2023-07-16T12:48:05;2.00;;;1.70;;
71655;SDS011;59497;48.798;8.816;2023-07-16T12:50:30;3.03;;;2.23;;
71655;SDS011;59497;48.798;8.816;2023-07-16T12:52:55;2.03;;;1.90;;
71655;SDS011;59497;48.798;8.816;2023-07-16T12:55:20;2.33;;;1.93;;
71655;SDS011;59497;48.798;8.816;2023-07-16T12:57:46;2.93;;;2.20;;
71655;SDS011;59497;48.798;8.816;2023-07-16T13:00:11;2.33;;;2.10;;
71655;SDS011;59497;48.798;8.816;2023-07-16T13:02:37;3.43;;;2.20;;
71655;SDS011;59497;48.798;8.816;2023-07-16T13:05:02;2.25;;;2.00;;
71655;SDS011;59497;48.798;8.816;2023-07-16T13:07:27;2.70;;;2.50;;
71655;SDS011;59497;48.798;8.816;2023-07-16T13:09:52;3.47;;;2.40;;
71655;SDS011;59497;48.798;8.816;2023-07-16T13:12:18;2.22;;;2.00;;
71655;SDS011;59497;48.798;8.816;2023-07-16T13:14:43;4.13;;;2.77;;
71655;SDS011;59497;48.798;8.816;2023-07-16T13:17:08;2.20;;;2.00;;
71655;SDS011;59497;48.798;8.816;2023-07-16T13:19:34;3.22;;;2.08;;
71655;SDS011;59497;48.798;8.816;2023-07-16T13:21:59;2.20;;;1.90;;
71655;SDS011;59497;48.798;8.816;2023-07-16T13:24:24;2.03;;;1.80;;
71655;SDS011;59497;48.798;8.816;2023-07-16T13:26:50;2.33;;;2.13;;
71655;SDS011;59497;48.798;8.816;2023-07-16T13:29:15;2.33;;;2.13;;
71655;SDS011;59497;48.798;8.816;2023-07-16T13:31:41;3.37;;;1.90;;
71655;SDS011;59497;48.798;8.816;2023-07-16T13:34:06;2.33;;;2.13;;
71655;SDS011;59497;48.798;8.816;2023-07-16T13:36:31;2.80;;;2.60;;
71655;SDS011;59497;48.798;8.816;2023-07-16T13:38:56;3.20;;;2.30;;
71655;SDS011;59497;48.798;8.816;2023-07-16T13:41:21;2.73;;;2.43;;
71655;SDS011;59497;48.798;8.816;2023-07-16T13:43:46;3.07;;;2.33;;
71655;SDS011;59497;48.798;8.816;2023-07-16T13:46:12;3.90;;;2.53;;
71655;SDS011;59497;48.798;8.816;2023-07-16T13:48:37;4.13;;;2.00;;
71655;SDS011;59497;48.798;8.816;2023-07-16T13:51:03;2.47;;;2.28;;
71655;SDS011;59497;48.798;8.816;2023-07-16T13:53:28;4.53;;;2.23;;
71655;SDS011;59497;48.798;8.816;2023-07-16T13:55:53;3.20;;;2.90;;
71655;SDS011;59497;48.798;8.816;2023-07-16T13:58:19;2.43;;;2.23;;
71655;SDS011;59497;48.798;8.816;2023-07-16T14:00:44;3.43;;;2.10;;
71655;SDS011;59497;48.798;8.816;2023-07-16T14:03:09;2.33;;;1.80;;
71655;SDS011;59497;48.798;8.816;2023-07-16T14:05:34;2.47;;;2.13;;
71655;SDS011;59497;48.798;8.816;2023-07-16T14:08:03;3.28;;;2.55;;
71655;SDS011;59497;48.798;8.816;2023-07-16T14:10:28;4.50;;;2.73;;
71655;SDS011;59497;48.798;8.816;2023-07-16T14:12:54;3.17;;;2.50;;
71655;SDS011;59497;48.798;8.816;2023-07-16T14:15:19;3.23;;;2.10;;
71655;SDS011;59497;48.798;8.816;2023-07-16T14:17:44;4.27;;;2.63;;
71655;SDS011;59497;48.798;8.816;2023-07-16T14:20:09;2.77;;;2.33;;
71655;SDS011;59497;48.798;8.816;2023-07-16T14:22:35;3.90;;;2.28;;
71655;SDS011;59497;48.798;8.816;2023-07-16T14:25:03;2.87;;;2.03;;
71655;SDS011;59497;48.798;8.816;2023-07-16T14:27:28;3.20;;;2.00;;
71655;SDS011;59497;48.798;8.816;2023-07-16T14:29:54;3.23;;;2.27;;
71655;SDS011;59497;48.798;8.816;2023-07-16T14:32:19;4.07;;;2.53;;
71655;SDS011;59497;48.798;8.816;2023-07-16T14:34:44;3.17;;;2.22;;
71655;SDS011;59497;48.798;8.816;2023-07-16T14:37:09;3.90;;;2.33;;
71655;SDS011;59497;48.798;8.816;2023-07-16T14:39:34;4.40;;;2.70;;
71655;SDS011;59497;48.798;8.816;2023-07-16T14:42:00;2.80;;;2.60;;
71655;SDS011;59497;48.798;8.816;2023-07-16T14:44:29;3.45;;;2.70;;
71655;SDS011;59497;48.798;8.816;2023-07-16T14:46:54;4.37;;;2.10;;
71655;SDS011;59497;48.798;8.816;2023-07-16T14:49:19;3.67;;;2.10;;
71655;SDS011;59497;48.798;8.816;2023-07-16T14:51:45;3.37;;;2.83;;
71655;SDS011;59497;48.798;8.816;2023-07-16T14:54:10;2.70;;;2.50;;
71655;SDS011;59497;48.798;8.816;2023-07-16T14:56:35;6.20;;;2.80;;
71655;SDS011;59497;48.798;8.816;2023-07-16T14:59:00;4.63;;;2.03;;
71655;SDS011;59497;48.798;8.816;2023-07-16T15:01:25;1.87;;;1.77;;
71655;SDS011;59497;48.798;8.816;2023-07-16T15:03:51;2.73;;;2.10;;